aviador You're here:

FHAW Decoded Metar

WIDE AWAKE in ST. HELENA
Report Time2017-09-23 08:50:00
UTC Time2017-09-23 09:17:14
Flight Rules vfr VFR
Wind120° at 15 kt
W.Decomp.*RWY 13: 14.9 kt HW 1.6 kt RCW
W.Rank120° ranks 4
Current wind is above 120° avg. (12.5)
Visibility9999 m
Phenomena:N/A
Clouds:Few Scattered 021 Hf
Broken 045 Hf
Expected CloudBase > 2,000 ft AGL from Temp-Dew spread
Ceiling4,500 ft
Temp24°C (ISA +10)
Dew Point19°C (74% RH)
AAT21.9°C
QNH1018 hPa
Density Alt1,486 ft
Elevation259 ft
Report Wrong Elevation
Raw Report
FHAW 230850Z 12015KT 9999 SCT021 BKN045 24/19 Q1018 WHT TEMPO
FEW021 BLU=

Extra information for FHAW:More info

Metar Taf Metar & Taf Last 4 Metars F.Rules Stats Wind Profile Meteogram Temp Stats Airport Information Weather charts Add Link Nearby VenuesMetar ALERT Operation Metar Decoded Social comments